createdAt,value
2023-02-14T00:01:58.708Z,15.50
2023-02-14T00:07:03.148Z,15.10
2023-02-14T00:12:07.515Z,15.07
2023-02-14T00:22:45.827Z,14.73
2023-02-14T00:27:48.709Z,16.00
2023-02-14T00:32:51.638Z,17.47
2023-02-14T00:37:56.003Z,16.17
2023-02-14T00:42:58.948Z,16.17
2023-02-14T00:48:01.858Z,15.40
2023-02-14T00:53:06.156Z,18.07
2023-02-14T00:58:09.104Z,17.70
2023-02-14T01:03:12.010Z,17.27
2023-02-14T01:08:16.275Z,16.27
2023-02-14T01:13:20.126Z,15.67
2023-02-14T01:18:23.035Z,16.20
2023-02-14T01:23:27.264Z,15.37
2023-02-14T01:28:31.214Z,14.17
2023-02-14T01:33:34.152Z,12.80
2023-02-14T01:38:38.461Z,11.10
2023-02-14T01:43:57.105Z,14.70
2023-02-14T01:49:04.505Z,12.53
2023-02-14T01:54:10.623Z,12.03
2023-02-14T01:59:17.546Z,12.50
2023-02-14T02:04:24.677Z,12.13
2023-02-14T02:09:34.701Z,11.63
2023-02-14T02:14:37.887Z,11.07
2023-02-14T02:20:07.418Z,10.70
2023-02-14T02:25:26.583Z,12.23
2023-02-14T02:31:08.962Z,11.53
2023-02-14T02:36:33.309Z,12.47
2023-02-14T02:41:48.888Z,11.50
2023-02-14T02:46:59.969Z,11.23
2023-02-14T02:52:27.227Z,10.50
2023-02-14T02:57:36.979Z,10.40
2023-02-14T03:02:56.829Z,10.60
2023-02-14T03:08:01.264Z,10.57
2023-02-14T03:13:19.189Z,11.40
2023-02-14T03:18:43.728Z,9.47
2023-02-14T03:23:58.574Z,9.50
2023-02-14T03:29:09.131Z,9.93
2023-02-14T03:34:16.198Z,11.50
2023-02-14T03:39:25.457Z,12.80
2023-02-14T03:44:32.080Z,11.97
2023-02-14T03:49:41.352Z,12.77
2023-02-14T03:54:49.775Z,11.13
2023-02-14T03:59:54.588Z,12.70
2023-02-14T04:05:01.000Z,11.97
2023-02-14T04:10:05.621Z,13.00
2023-02-14T04:15:09.383Z,12.30
2023-02-14T04:20:12.649Z,12.40
2023-02-14T04:25:17.180Z,13.70
2023-02-14T04:30:20.981Z,12.13
2023-02-14T04:35:24.086Z,11.60
2023-02-14T04:40:28.369Z,12.10
2023-02-14T04:45:31.368Z,13.87
2023-02-14T04:50:34.332Z,13.87
2023-02-14T04:55:38.607Z,11.77
2023-02-14T05:00:41.625Z,12.40
2023-02-14T05:05:44.652Z,13.80
2023-02-14T05:10:49.383Z,13.93
2023-02-14T05:15:52.270Z,13.97
2023-02-14T05:20:55.990Z,13.40
2023-02-14T05:26:00.341Z,14.10
2023-02-14T05:31:03.753Z,12.37
2023-02-14T05:36:07.601Z,13.00
2023-02-14T05:41:11.925Z,12.20
2023-02-14T05:46:14.955Z,13.20
2023-02-14T05:51:17.833Z,14.00
2023-02-14T05:56:22.104Z,18.00
2023-02-14T06:01:25.012Z,14.70
2023-02-14T06:06:27.882Z,14.33
2023-02-14T06:11:32.139Z,15.60
2023-02-14T06:16:35.179Z,16.40
2023-02-14T06:21:38.269Z,15.20
2023-02-14T06:26:42.712Z,17.90
2023-02-14T06:31:45.733Z,16.60
2023-02-14T06:36:48.677Z,16.67
2023-02-14T06:41:53.157Z,16.90
2023-02-14T06:46:56.052Z,15.10
2023-02-14T06:51:58.985Z,13.00
2023-02-14T06:57:03.497Z,11.60
2023-02-14T07:02:06.438Z,12.67
2023-02-14T07:07:09.374Z,11.50
2023-02-14T07:12:13.649Z,12.47
2023-02-14T07:17:16.549Z,11.83
2023-02-14T07:22:19.468Z,11.40
2023-02-14T07:27:23.739Z,12.20
2023-02-14T07:32:26.870Z,11.40
2023-02-14T07:37:29.867Z,11.33
2023-02-14T07:42:34.251Z,10.10
2023-02-14T07:47:37.248Z,10.10
2023-02-14T07:52:40.125Z,10.50
2023-02-14T07:57:44.457Z,13.00
2023-02-14T08:02:47.421Z,11.60
2023-02-14T08:07:50.512Z,12.00
2023-02-14T08:13:00.463Z,9.57
2023-02-14T08:18:03.377Z,10.20
2023-02-14T08:23:06.273Z,10.87
2023-02-14T08:28:11.116Z,9.60
2023-02-14T08:33:14.123Z,10.90
2023-02-14T08:38:17.066Z,10.70
2023-02-14T08:43:21.517Z,9.20
2023-02-14T08:48:26.732Z,11.93
2023-02-14T08:53:29.621Z,12.10
2023-02-14T08:58:35.822Z,10.57
2023-02-14T09:03:39.092Z,12.13
2023-02-14T09:08:42.038Z,11.20
2023-02-14T09:13:47.020Z,11.93
2023-02-14T09:18:50.577Z,14.10
2023-02-14T09:23:53.858Z,11.83
2023-02-14T09:28:58.921Z,11.47
2023-02-14T09:34:01.805Z,11.80
2023-02-14T09:39:05.171Z,12.50
2023-02-14T09:44:15.600Z,12.50
2023-02-14T09:49:32.065Z,10.90
2023-02-14T09:54:37.057Z,12.20
2023-02-14T09:59:48.503Z,12.60
2023-02-14T10:05:02.747Z,11.40
2023-02-14T10:10:13.960Z,11.23
2023-02-14T10:15:21.886Z,11.37
2023-02-14T10:20:29.142Z,10.37
2023-02-14T10:25:40.153Z,11.70
2023-02-14T10:30:51.489Z,11.90
2023-02-14T10:50:09.434Z,11.03
2023-02-14T10:55:31.609Z,9.37
2023-02-14T11:00:39.264Z,10.53
2023-02-14T11:06:13.358Z,11.57
2023-02-14T11:18:32.686Z,10.43
2023-02-14T11:23:40.506Z,9.80
2023-02-14T11:28:57.379Z,11.33
2023-02-14T11:34:03.676Z,9.80
2023-02-14T11:39:22.462Z,9.83
2023-02-14T11:44:27.880Z,10.40
2023-02-14T11:49:33.872Z,9.20
2023-02-14T11:54:40.349Z,9.20
2023-02-14T11:59:45.180Z,8.63
2023-02-14T12:04:51.031Z,8.70
2023-02-14T12:10:22.468Z,9.00
2023-02-14T12:15:30.175Z,9.57
2023-02-14T12:27:41.732Z,9.70
2023-02-14T12:32:49.479Z,9.27
2023-02-14T12:38:05.183Z,9.60
2023-02-14T12:43:43.601Z,9.73
2023-02-14T12:49:05.077Z,9.07
2023-02-14T12:54:29.264Z,8.80
2023-02-14T12:59:43.618Z,8.93
2023-02-14T13:04:55.792Z,8.67
2023-02-14T13:10:04.862Z,8.73
2023-02-14T13:15:23.550Z,10.23
2023-02-14T13:20:55.289Z,10.60
2023-02-14T13:26:02.013Z,12.43
2023-02-14T13:31:06.756Z,11.93
2023-02-14T13:36:13.016Z,12.10
2023-02-14T13:41:17.672Z,11.70
2023-02-14T13:46:50.059Z,11.00
2023-02-14T13:57:36.449Z,12.20
2023-02-14T14:02:45.598Z,12.10
2023-02-14T14:07:48.518Z,11.83
2023-02-14T14:12:53.664Z,10.53
2023-02-14T14:18:42.913Z,10.57
2023-02-14T14:23:45.885Z,10.47
2023-02-14T14:28:48.927Z,9.50
2023-02-14T14:34:01.230Z,10.30
2023-02-14T14:39:04.211Z,12.37
2023-02-14T14:44:07.996Z,12.37
2023-02-14T14:49:13.791Z,11.23
2023-02-14T14:54:21.362Z,13.37
2023-02-14T14:59:31.034Z,15.07
2023-02-14T15:04:36.564Z,15.20
2023-02-14T15:09:42.329Z,18.70
2023-02-14T15:14:54.362Z,14.70
2023-02-14T15:20:02.214Z,24.07
2023-02-14T15:25:10.738Z,19.50
2023-02-14T15:30:26.098Z,24.00
2023-02-14T15:35:33.161Z,16.90
2023-02-14T15:40:38.798Z,16.53
2023-02-14T15:45:43.142Z,18.00
2023-02-14T15:50:49.808Z,19.60
2023-02-14T15:55:52.906Z,19.97
2023-02-14T16:00:56.702Z,17.93
2023-02-14T16:06:01.189Z,21.30
2023-02-14T16:11:08.893Z,22.83
2023-02-14T16:16:13.400Z,20.07
2023-02-14T16:21:21.375Z,23.60
2023-02-14T16:26:24.286Z,19.77
2023-02-14T16:31:28.437Z,20.80
2023-02-14T16:36:34.985Z,17.90
2023-02-14T16:41:37.960Z,23.30
2023-02-14T16:46:43.073Z,23.13
2023-02-14T16:51:48.654Z,23.10
2023-02-14T16:56:55.616Z,21.80
2023-02-14T17:01:59.313Z,24.00
2023-02-14T17:07:05.993Z,23.57
2023-02-14T17:12:16.127Z,31.33
2023-02-14T17:17:19.238Z,39.33
2023-02-14T17:22:23.623Z,29.13
2023-02-14T17:27:26.563Z,25.70
2023-02-14T17:32:29.472Z,22.43
2023-02-14T17:37:34.355Z,22.10
2023-02-14T17:42:38.688Z,22.97
2023-02-14T17:47:43.287Z,20.17
2023-02-14T17:52:47.637Z,19.57
2023-02-14T17:57:52.507Z,20.90
2023-02-14T18:02:55.490Z,21.40
2023-02-14T18:07:59.787Z,22.10
2023-02-14T18:13:03.347Z,20.10
2023-02-14T18:18:06.306Z,20.93
2023-02-14T18:23:11.225Z,20.23
2023-02-14T18:28:14.109Z,21.60
2023-02-14T18:33:17.869Z,23.90
2023-02-14T18:38:22.203Z,21.03
2023-02-14T18:43:25.140Z,21.40
2023-02-14T18:48:28.131Z,22.00
2023-02-14T18:53:32.505Z,21.43
2023-02-14T18:58:36.167Z,20.40
2023-02-14T19:03:40.521Z,22.90
2023-02-14T19:08:45.153Z,23.00
2023-02-14T19:13:49.929Z,23.30
2023-02-14T19:18:54.112Z,24.17
2023-02-14T19:23:58.995Z,27.67
2023-02-14T19:29:03.788Z,28.20
2023-02-14T19:34:08.789Z,26.50
2023-02-14T19:39:14.232Z,28.47
2023-02-14T19:44:18.505Z,28.73
2023-02-14T19:49:22.143Z,28.73
2023-02-14T19:54:26.619Z,27.93
2023-02-14T19:59:32.463Z,24.33
2023-02-14T20:04:35.330Z,25.77
2023-02-14T20:09:39.642Z,31.60
2023-02-14T20:14:50.912Z,34.00
2023-02-14T20:19:55.876Z,26.90
2023-02-14T20:25:00.618Z,28.33
2023-02-14T20:30:03.850Z,27.43
2023-02-14T20:35:07.526Z,28.57
2023-02-14T20:40:13.294Z,28.90
2023-02-14T20:45:16.183Z,30.87
2023-02-14T20:50:19.206Z,30.10
2023-02-14T20:55:23.540Z,30.37
2023-02-14T21:00:27.908Z,31.60
2023-02-14T21:05:30.858Z,30.80
2023-02-14T21:10:35.233Z,29.20
2023-02-14T21:15:38.170Z,27.83
2023-02-14T21:20:41.218Z,25.97
2023-02-14T21:25:45.480Z,24.77
2023-02-14T21:30:48.505Z,25.37
2023-02-14T21:35:51.573Z,25.73
2023-02-14T21:41:04.843Z,21.90
2023-02-14T21:46:09.440Z,24.53
2023-02-14T21:51:12.388Z,30.43
2023-02-14T21:56:19.771Z,27.90
2023-02-14T22:01:24.996Z,28.83
2023-02-14T22:06:28.607Z,28.50
2023-02-14T22:11:32.942Z,27.87
2023-02-14T22:16:36.853Z,25.10
2023-02-14T22:21:39.855Z,24.87
2023-02-14T22:26:44.107Z,23.63
2023-02-14T22:31:47.243Z,22.10
2023-02-14T22:36:51.226Z,24.73
2023-02-14T22:41:56.297Z,25.70
2023-02-14T22:46:59.271Z,26.30
2023-02-14T22:52:02.156Z,25.63
2023-02-14T22:57:06.477Z,20.87
2023-02-14T23:02:09.798Z,22.93
2023-02-14T23:07:12.690Z,24.40
2023-02-14T23:12:30.865Z,19.73
2023-02-14T23:17:51.079Z,22.63
2023-02-14T23:22:53.956Z,26.27
2023-02-14T23:27:58.257Z,24.67
2023-02-14T23:33:01.147Z,27.40
2023-02-14T23:38:04.012Z,25.80
2023-02-14T23:43:08.274Z,24.10
2023-02-14T23:48:11.677Z,26.57
2023-02-14T23:53:15.361Z,24.70
2023-02-14T23:58:19.606Z,27.50
